KABQ/ABQ METAR and TAF weather

Enter ICAO airport designator
Station Type Date Time Source
KABQ METAR 2019/12/07 09:52 UTC NOAA

KABQ 070952Z 01008KT 10SM SCT250 02/M02 A3032 RMK AO2 SLP253 T00171022


Station Type Date Time Source
KABQ Decoded METAR 2019/12/07 09:52 UTC NOAA

ALBUQUERQUE INTERNATIONAL AIRPORT, NM, United States (KABQ) 35-02N 106-36W 1618M
Dec 07, 2019 - 04:52 AM EST / 2019.12.07 0952 UTC
Wind: from the N (010 degrees) at 9 MPH (8 KT):0
Visibility: 10 mile(s):0
Sky conditions: partly cloudy
Temperature: 35.1 F (1.7 C)
Dew Point: 28.0 F (-2.2 C)
Relative Humidity: 75%
Pressure (altimeter): 30.32 in. Hg (1026 hPa)
ob: KABQ 070952Z 01008KT 10SM SCT250 02/M02 A3032 RMK AO2 SLP253 T00171022
cycle: 10

Station Type Date Time Source
KABQ TAF 2019/12/07 06:24 UTC NOAA

TAF KABQ 070521Z 0706/0806 VRB06KT P6SM BKN200
FM071900 26006KT P6SM SCT150 SCT250
FM080100 VRB06KT P6SM BKN200

Example: see airport list